Time;durP1;ratioP1;P1;durP2;ratioP2;P2;SDS_P1;SDS_P2;PMS_P1;PMS_P2;Temp;Humidity;BMP_temperature;BMP_pressure;BME280_temperature;BME280_humidity;BME280_pressure;Samples;Min_cycle;Max_cycle;Signal;HPM_P1;HPM_P2
2022/08/14 00:02:23;;;;;;;;;;;;;;;;;;5059237;28;2345;-70
2022/08/14 00:04:48;;;;;;;;;;;;;;;;;;5061231;28;2278;-70
2022/08/14 00:07:14;;;;;;;;;;;;;;;;;;5058417;28;2375;-71
2022/08/14 00:09:39;;;;;;;;;;;;;;;;;;5063584;28;2307;-70
2022/08/14 00:12:04;;;;;;;;;;;;;;;;;;5062782;28;2635;-70
2022/08/14 00:14:30;;;;;;;;;;;;;;;;;;5058865;28;2308;-70
2022/08/14 00:16:55;;;;;;;;;;;;;;;;;;5046835;28;2489;-70
2022/08/14 00:19:20;;;;;;;;;;;;;;;;;;5049998;28;3043;-71
2022/08/14 00:21:46;;;;;;;;;;;;;;;;;;5054740;28;2335;-70
2022/08/14 00:24:11;;;;;;;;;;;;;;;;;;5051873;28;2526;-70
2022/08/14 00:26:36;;;;;;;;;;;;;;;;;;5049340;28;2522;-71
2022/08/14 00:29:02;;;;;;;;;;;;;;;;;;5063475;28;2229;-70
2022/08/14 00:31:27;;;;;;;;;;;;;;;;;;5063113;28;2655;-70
2022/08/14 00:33:52;;;;;;;;;;;;;;;;;;5048817;28;2086;-71
2022/08/14 00:36:18;;;;;;;;;;;;;;;;;;5051172;28;2239;-70
2022/08/14 00:38:43;;;;;;;;;;;;;;;;;;5058046;28;2330;-71
2022/08/14 00:41:08;;;;;;;;;;;;;;;;;;5079393;27;2281;-70
2022/08/14 00:43:34;;;;;;;;;;;;;;;;;;5062438;28;3492;-70
2022/08/14 00:46:04;;;;;;;;;;;;;;;;;;5065884;28;2355;-70
2022/08/14 00:48:29;;;;;;;;;;;;;;;;;;5060280;28;2659;-70
2022/08/14 00:50:54;;;;;;;;;;;;;;;;;;5074275;28;2919;-70
2022/08/14 00:53:22;;;;;;;;;;;;;;;;;;5050112;28;2644;-71
2022/08/14 00:55:48;;;;;;;;;;;;;;;;;;5069164;28;2446;-70
2022/08/14 00:58:31;;;;;;;;;;;;;;;;;;5061609;28;2512;-70
2022/08/14 01:00:58;;;;;;;;;;;;;;;;;;5058997;28;2265;-70
2022/08/14 01:03:23;;;;;;;;;;;;;;;;;;5053802;28;2638;-70
2022/08/14 01:05:50;;;;;;;;;;;;;;;;;;5061589;28;2591;-70
2022/08/14 01:08:20;;;;;;;;;;;;;;;;;;5069698;28;2490;-70
2022/08/14 01:10:49;;;;;;;;;;;;;;;;;;5059008;28;2366;-70
2022/08/14 01:13:16;;;;;;;;;;;;;;;;;;5062832;28;2489;-70
2022/08/14 01:15:45;;;;;;;;;;;;;;;;;;5062236;28;2888;-70
2022/08/14 01:21:10;;;;;;;;;;;;;;;;;;5055499;28;2277;-72
2022/08/14 01:23:37;;;;;;;;;;;;;;;;;;5066542;28;2557;-72
2022/08/14 01:26:03;;;;;;;;;;;;;;;;;;5063121;28;2336;-72
2022/08/14 01:28:30;;;;;;;;;;;;;;;;;;5064192;28;2292;-72
2022/08/14 01:30:56;;;;;;;;;;;;;;;;;;5058524;28;2290;-72
2022/08/14 01:33:27;;;;;;;;;;;;;;;;;;5050754;28;2426;-72
2022/08/14 01:35:57;;;;;;;;;;;;;;;;;;5060313;28;2593;-72
2022/08/14 01:38:23;;;;;;;;;;;;;;;;;;5065432;28;2771;-73
2022/08/14 01:40:48;;;;;;;;;;;;;;;;;;5063048;28;2785;-72
2022/08/14 01:43:16;;;;;;;;;;;;;;;;;;5063235;28;2746;-72
2022/08/14 01:45:43;;;;;;;;;;;;;;;;;;5059124;28;2308;-72
2022/08/14 01:48:08;;;;;;;;;;;;;;;;;;5068201;28;2672;-70
2022/08/14 01:50:34;;;;;;;;;;;;;;;;;;5060684;28;2780;-70
2022/08/14 01:52:59;;;;;;;;;;;;;;;;;;5064586;28;2294;-70
2022/08/14 01:55:29;;;;;;;;;;;;;;;;;;5060820;28;2218;-70
2022/08/14 01:57:54;;;;;;;;;;;;;;;;;;5059333;28;2928;-70
2022/08/14 02:00:19;;;;;;;;;;;;;;;;;;5058363;28;2265;-70
2022/08/14 02:02:45;;;;;;;;;;;;;;;;;;5066676;28;2781;-70
2022/08/14 02:05:11;;;;;;;;;;;;;;;;;;5056498;28;2391;-70
2022/08/14 02:07:36;;;;;;;;;;;;;;;;;;5058337;28;2440;-70
2022/08/14 02:10:02;;;;;;;;;;;;;;;;;;5051713;28;2228;-70
2022/08/14 02:12:29;;;;;;;;;;;;;;;;;;5063504;28;2356;-70
2022/08/14 02:14:55;;;;;;;;;;;;;;;;;;5067280;28;2301;-70
2022/08/14 02:17:22;;;;;;;;;;;;;;;;;;5048077;28;2627;-70
2022/08/14 02:19:47;;;;;;;;;;;;;;;;;;5058037;28;2306;-70
2022/08/14 02:22:12;;;;;;;;;;;;;;;;;;5050298;28;2743;-70
2022/08/14 02:24:38;;;;;;;;;;;;;;;;;;5051402;28;2337;-70
2022/08/14 02:27:04;;;;;;;;;;;;;;;;;;5057318;28;2325;-70
2022/08/14 02:29:31;;;;;;;;;;;;;;;;;;5049800;28;2359;-70
2022/08/14 02:31:57;;;;;;;;;;;;;;;;;;5057546;28;2248;-70
2022/08/14 02:34:28;;;;;;;;;;;;;;;;;;5054562;28;2304;-70
2022/08/14 02:36:58;;;;;;;;;;;;;;;;;;5049189;28;2276;-70
2022/08/14 02:39:23;;;;;;;;;;;;;;;;;;5049365;28;2202;-70
2022/08/14 02:41:50;;;;;;;;;;;;;;;;;;5065189;28;2335;-70
2022/08/14 02:44:16;;;;;;;;;;;;;;;;;;5063640;28;2328;-70
2022/08/14 02:46:43;;;;;;;;;;;;;;;;;;5051110;28;2599;-70
2022/08/14 02:49:09;;;;;;;;;;;;;;;;;;5068992;28;2758;-70
2022/08/14 02:51:35;;;;;;;;;;;;;;;;;;5067000;28;2161;-70
2022/08/14 02:54:00;;;;;;;;;;;;;;;;;;5064354;28;2407;-70
2022/08/14 02:56:26;;;;;;;;;;;;;;;;;;5060035;28;2791;-70
2022/08/14 02:58:52;;;;;;;;;;;;;;;;;;5058114;28;2594;-70
2022/08/14 03:01:18;;;;;;;;;;;;;;;;;;5054607;28;2513;-70
2022/08/14 03:03:45;;;;;;;;;;;;;;;;;;5065384;28;2284;-70
2022/08/14 03:06:11;;;;;;;;;;;;;;;;;;5054813;28;2302;-70
2022/08/14 03:08:37;;;;;;;;;;;;;;;;;;5066524;28;2658;-70
2022/08/14 03:11:05;;;;;;;;;;;;;;;;;;5062532;28;2176;-70
2022/08/14 03:13:34;;;;;;;;;;;;;;;;;;5058260;28;2758;-70
2022/08/14 03:15:59;;;;;;;;;;;;;;;;;;5063032;28;2869;-70
2022/08/14 03:18:25;;;;;;;;;;;;;;;;;;5055239;28;2368;-70
2022/08/14 03:20:50;;;;;;;;;;;;;;;;;;5054822;28;2199;-70
2022/08/14 03:23:16;;;;;;;;;;;;;;;;;;5054736;28;2338;-70
2022/08/14 03:25:43;;;;;;;;;;;;;;;;;;5055260;28;2957;-70
2022/08/14 03:28:08;;;;;;;;;;;;;;;;;;5060933;28;2230;-70
2022/08/14 03:30:34;;;;;;;;;;;;;;;;;;5056897;28;2214;-70
2022/08/14 03:33:00;;;;;;;;;;;;;;;;;;5048735;28;2024;-70
2022/08/14 03:35:26;;;;;;;;;;;;;;;;;;5045584;28;2636;-70
2022/08/14 03:37:51;;;;;;;;;;;;;;;;;;5042571;28;2620;-70
2022/08/14 03:40:17;;;;;;;;;;;;;;;;;;5052068;28;1967;-70
2022/08/14 03:42:43;;;;;;;;;;;;;;;;;;5058927;28;2760;-70
2022/08/14 03:45:08;;;;;;;;;;;;;;;;;;5052073;28;1913;-70
2022/08/14 03:47:35;;;;;;;;;;;;;;;;;;5046577;28;2744;-70
2022/08/14 03:50:01;;;;;;;;;;;;;;;;;;5050173;28;1803;-70
2022/08/14 03:52:26;;;;;;;;;;;;;;;;;;5056736;28;2645;-70
2022/08/14 03:54:52;;;;;;;;;;;;;;;;;;5052163;28;1971;-70
2022/08/14 03:57:17;;;;;;;;;;;;;;;;;;5043247;28;3465;-70
2022/08/14 03:59:42;;;;;;;;;;;;;;;;;;5046027;28;2022;-70
2022/08/14 04:02:07;;;;;;;;;;;;;;;;;;5041847;28;2535;-70
2022/08/14 04:04:32;;;;;;;;;;;;;;;;;;5053391;28;1880;-70
2022/08/14 04:07:01;;;;;;;;;;;;;;;;;;5056125;28;2188;-70
2022/08/14 04:09:27;;;;;;;;;;;;;;;;;;5051599;28;1837;-70
2022/08/14 04:11:52;;;;;;;;;;;;;;;;;;5050812;28;2737;-70
2022/08/14 04:14:18;;;;;;;;;;;;;;;;;;5056323;28;2538;-70
2022/08/14 04:16:45;;;;;;;;;;;;;;;;;;5054260;28;2985;-71
2022/08/14 04:19:10;;;;;;;;;;;;;;;;;;5049329;28;1942;-70
2022/08/14 04:21:35;;;;;;;;;;;;;;;;;;5045533;28;2612;-70
2022/08/14 04:24:01;;;;;;;;;;;;;;;;;;5044194;28;2560;-70
2022/08/14 04:26:27;;;;;;;;;;;;;;;;;;5047275;28;1983;-70
2022/08/14 04:28:52;;;;;;;;;;;;;;;;;;5047378;28;2022;-70
2022/08/14 04:31:18;;;;;;;;;;;;;;;;;;5050414;28;2737;-70
2022/08/14 04:33:43;;;;;;;;;;;;;;;;;;5053432;28;2881;-70
2022/08/14 04:36:09;;;;;;;;;;;;;;;;;;5056579;28;2854;-70
2022/08/14 04:44:03;;;;;;;;;;;;;;;;;;5052574;28;1935;-70
2022/08/14 04:46:28;;;;;;;;;;;;;;;;;;5051909;28;2085;-70
2022/08/14 04:48:54;;;;;;;;;;;;;;;;;;5052371;28;2718;-70
2022/08/14 04:51:21;;;;;;;;;;;;;;;;;;5054934;28;1863;-70
2022/08/14 04:53:47;;;;;;;;;;;;;;;;;;5041753;28;2528;-70
2022/08/14 04:56:13;;;;;;;;;;;;;;;;;;5050880;28;1884;-70
2022/08/14 04:58:41;;;;;;;;;;;;;;;;;;5045657;28;2035;-70
2022/08/14 05:01:07;;;;;;;;;;;;;;;;;;5045415;28;2486;-70
2022/08/14 05:03:34;;;;;;;;;;;;;;;;;;5054359;28;2273;-70
2022/08/14 05:06:00;;;;;;;;;;;;;;;;;;5059297;28;2953;-70
2022/08/14 05:08:26;;;;;;;;;;;;;;;;;;5046409;28;2473;-70
2022/08/14 05:10:53;;;;;;;;;;;;;;;;;;5058104;28;2734;-70
2022/08/14 05:13:18;;;;;;;;;;;;;;;;;;5053749;28;2756;-70
2022/08/14 05:15:45;;;;;;;;;;;;;;;;;;5051741;28;2077;-70
2022/08/14 05:18:12;;;;;;;;;;;;;;;;;;5065840;28;2138;-70
2022/08/14 05:20:44;;;;;;;;;;;;;;;;;;5060042;28;1752;-70
2022/08/14 05:23:11;;;;;;;;;;;;;;;;;;5068586;28;3128;-70
2022/08/14 05:25:36;;;;;;;;;;;;;;;;;;5061593;28;1797;-71
2022/08/14 05:28:18;;;;;;;;;;;;;;;;;;5070128;28;2816;-70
2022/08/14 05:30:47;;;;;;;;;;;;;;;;;;5064091;28;1991;-70
2022/08/14 05:33:15;;;;;;;;;;;;;;;;;;5063862;28;2544;-70
2022/08/14 05:35:40;;;;;;;;;;;;;;;;;;5067727;28;1672;-70
2022/08/14 05:38:09;;;;;;;;;;;;;;;;;;5066359;28;2382;-71
2022/08/14 05:40:35;;;;;;;;;;;;;;;;;;5059564;28;1797;-70
2022/08/14 05:43:01;;;;;;;;;;;;;;;;;;5070744;28;2314;-70
2022/08/14 05:45:26;;;;;;;;;;;;;;;;;;5060357;28;1847;-70
2022/08/14 05:47:51;;;;;;;;;;;;;;;;;;5065786;28;2312;-70
2022/08/14 05:50:17;;;;;;;;;;;;;;;;;;5062207;28;1835;-71
2022/08/14 05:52:42;;;;;;;;;;;;;;;;;;5066526;28;2936;-71
2022/08/14 05:55:08;;;;;;;;;;;;;;;;;;5063192;28;1787;-71
2022/08/14 05:57:33;;;;;;;;;;;;;;;;;;5059496;28;2302;-71
2022/08/14 05:59:58;;;;;;;;;;;;;;;;;;5065019;28;1787;-71
2022/08/14 06:02:24;;;;;;;;;;;;;;;;;;5058587;28;1962;-70
2022/08/14 06:04:49;;;;;;;;;;;;;;;;;;5062632;28;2198;-71
2022/08/14 06:07:14;;;;;;;;;;;;;;;;;;5063620;28;2141;-71
2022/08/14 06:09:40;;;;;;;;;;;;;;;;;;5062907;28;2526;-71
2022/08/14 06:12:06;;;;;;;;;;;;;;;;;;5052395;28;2240;-71
2022/08/14 06:14:31;;;;;;;;;;;;;;;;;;5051676;28;2604;-71
2022/08/14 06:16:56;;;;;;;;;;;;;;;;;;5063269;28;2003;-71
2022/08/14 06:19:21;;;;;;;;;;;;;;;;;;5055477;28;1799;-71
2022/08/14 06:21:47;;;;;;;;;;;;;;;;;;5061962;28;2054;-70
2022/08/14 06:24:12;;;;;;;;;;;;;;;;;;5051551;28;2952;-71
2022/08/14 06:26:37;;;;;;;;;;;;;;;;;;5049099;28;2804;-70
2022/08/14 06:29:02;;;;;;;;;;;;;;;;;;5051478;28;2608;-70
2022/08/14 06:31:27;;;;;;;;;;;;;;;;;;5055351;28;2647;-70
2022/08/14 06:33:53;;;;;;;;;;;;;;;;;;5045096;28;2428;-70
2022/08/14 06:36:18;;;;;;;;;;;;;;;;;;5049991;28;2593;-70
2022/08/14 06:38:43;;;;;;;;;;;;;;;;;;5047382;28;2252;-70
2022/08/14 06:41:09;;;;;;;;;;;;;;;;;;5044855;28;2550;-70
2022/08/14 06:43:34;;;;;;;;;;;;;;;;;;5048327;28;2163;-70
2022/08/14 06:45:59;;;;;;;;;;;;;;;;;;5044788;28;1899;-70
2022/08/14 06:48:25;;;;;;;;;;;;;;;;;;5053273;28;2757;-70
2022/08/14 06:50:51;;;;;;;;;;;;;;;;;;5054204;28;1777;-70
2022/08/14 06:53:18;;;;;;;;;;;;;;;;;;5058143;28;2742;-70
2022/08/14 06:55:44;;;;;;;;;;;;;;;;;;5057434;28;1724;-70
2022/08/14 06:58:13;;;;;;;;;;;;;;;;;;5064447;28;2872;-70
2022/08/14 07:00:38;;;;;;;;;;;;;;;;;;5044548;28;1971;-70
2022/08/14 07:05:48;;;;;;;;;;;;;;;;;;5044779;28;1979;-70
2022/08/14 07:08:21;;;;;;;;;;;;;;;;;;5061443;28;2733;-70
2022/08/14 07:10:48;;;;;;;;;;;;;;;;;;5054479;28;1864;-70
2022/08/14 07:13:14;;;;;;;;;;;;;;;;;;5060318;28;2724;-70
2022/08/14 07:15:40;;;;;;;;;;;;;;;;;;5057156;28;1845;-73
2022/08/14 07:18:06;;;;;;;;;;;;;;;;;;5063095;28;2355;-74
2022/08/14 07:20:31;;;;;;;;;;;;;;;;;;5042682;28;2037;-70
2022/08/14 07:22:59;;;;;;;;;;;;;;;;;;5058758;28;2633;-70
2022/08/14 07:25:24;;;;;;;;;;;;;;;;;;5045064;28;2054;-70
2022/08/14 07:27:49;;;;;;;;;;;;;;;;;;5063219;28;2854;-70
2022/08/14 07:30:15;;;;;;;;;;;;;;;;;;5055614;28;1859;-70
2022/08/14 07:32:40;;;;;;;;;;;;;;;;;;5062814;28;2157;-70
2022/08/14 07:35:06;;;;;;;;;;;;;;;;;;5055126;28;2684;-71
2022/08/14 07:37:31;;;;;;;;;;;;;;;;;;5046986;28;2650;-70
2022/08/14 07:39:56;;;;;;;;;;;;;;;;;;5038365;28;3140;-70
2022/08/14 07:42:22;;;;;;;;;;;;;;;;;;5042567;28;2770;-71
2022/08/14 07:44:47;;;;;;;;;;;;;;;;;;5061107;28;1941;-70
2022/08/14 07:47:14;;;;;;;;;;;;;;;;;;5047905;28;2067;-70
2022/08/14 07:49:40;;;;;;;;;;;;;;;;;;5038045;28;2545;-70
2022/08/14 07:52:05;;;;;;;;;;;;;;;;;;5039903;28;2065;-70
2022/08/14 07:54:30;;;;;;;;;;;;;;;;;;5039793;28;2467;-70
2022/08/14 07:56:59;;;;;;;;;;;;;;;;;;5042763;28;2414;-70
2022/08/14 07:59:25;;;;;;;;;;;;;;;;;;5052454;28;2230;-70
2022/08/14 08:01:50;;;;;;;;;;;;;;;;;;5043366;28;2229;-70
2022/08/14 08:04:16;;;;;;;;;;;;;;;;;;5050312;28;2811;-70
2022/08/14 08:06:41;;;;;;;;;;;;;;;;;;5059323;28;2794;-70
2022/08/14 08:09:07;;;;;;;;;;;;;;;;;;5065252;28;2188;-70
2022/08/14 08:11:34;;;;;;;;;;;;;;;;;;5057580;28;2667;-70
2022/08/14 08:14:02;;;;;;;;;;;;;;;;;;5061331;28;2731;-70
2022/08/14 08:16:27;;;;;;;;;;;;;;;;;;5054856;28;1985;-70
2022/08/14 08:18:52;;;;;;;;;;;;;;;;;;5059169;28;2714;-70
2022/08/14 08:21:17;;;;;;;;;;;;;;;;;;5057391;28;2780;-71
2022/08/14 08:23:42;;;;;;;;;;;;;;;;;;5061760;28;2360;-70
2022/08/14 08:26:08;;;;;;;;;;;;;;;;;;5062696;28;1743;-70
2022/08/14 08:28:33;;;;;;;;;;;;;;;;;;5059117;28;2078;-71
2022/08/14 08:31:03;;;;;;;;;;;;;;;;;;5061059;28;1899;-71
2022/08/14 08:33:34;;;;;;;;;;;;;;;;;;5059137;28;2537;-70
2022/08/14 08:36:06;;;;;;;;;;;;;;;;;;5068746;28;1359;-71
2022/08/14 08:38:32;;;;;;;;;;;;;;;;;;5063183;28;2479;-71
2022/08/14 08:40:58;;;;;;;;;;;;;;;;;;5067549;28;1208;-71
2022/08/14 08:43:23;;;;;;;;;;;;;;;;;;5071216;28;2161;-71
2022/08/14 08:46:13;;;;;;;;;;;;;;;;;;5066705;28;1855;-71
2022/08/14 08:48:45;;;;;;;;;;;;;;;;;;5062282;28;2073;-71
2022/08/14 08:51:21;;;;;;;;;;;;;;;;;;5064303;28;1919;-72
2022/08/14 08:53:54;;;;;;;;;;;;;;;;;;5061539;28;2531;-73
2022/08/14 08:56:19;;;;;;;;;;;;;;;;;;5064388;28;1846;-71
2022/08/14 08:58:44;;;;;;;;;;;;;;;;;;5061414;28;1982;-72
2022/08/14 09:01:09;;;;;;;;;;;;;;;;;;5059732;28;2123;-70
2022/08/14 09:03:35;;;;;;;;;;;;;;;;;;5054830;28;2386;-70
2022/08/14 09:06:04;;;;;;;;;;;;;;;;;;5058070;28;1939;-70
2022/08/14 09:08:34;;;;;;;;;;;;;;;;;;5055077;28;2453;-70
2022/08/14 09:11:08;;;;;;;;;;;;;;;;;;5057898;28;1806;-71
2022/08/14 09:13:33;;;;;;;;;;;;;;;;;;5060388;28;2022;-70
2022/08/14 09:15:59;;;;;;;;;;;;;;;;;;5057316;28;1761;-70
2022/08/14 09:18:26;;;;;;;;;;;;;;;;;;5060081;28;2630;-70
2022/08/14 09:20:52;;;;;;;;;;;;;;;;;;5059477;28;1806;-70
2022/08/14 09:23:17;;;;;;;;;;;;;;;;;;5062533;28;2890;-70
2022/08/14 09:25:44;;;;;;;;;;;;;;;;;;5061386;28;1623;-70
2022/08/14 09:28:10;;;;;;;;;;;;;;;;;;5064327;28;2296;-70
2022/08/14 09:30:36;;;;;;;;;;;;;;;;;;5061687;28;1705;-70
2022/08/14 09:33:02;;;;;;;;;;;;;;;;;;5063185;28;2883;-70
2022/08/14 09:35:45;;;;;;;;;;;;;;;;;;5057876;28;2217;-70
2022/08/14 09:38:33;;;;;;;;;;;;;;;;;;5056021;28;2819;-70
2022/08/14 09:41:18;;;;;;;;;;;;;;;;;;5066216;28;1869;-72
2022/08/14 09:43:46;;;;;;;;;;;;;;;;;;5062210;28;1986;-72
2022/08/14 09:46:12;;;;;;;;;;;;;;;;;;5062454;28;1909;-72
2022/08/14 09:48:37;;;;;;;;;;;;;;;;;;5057902;28;2416;-72
2022/08/14 09:51:06;;;;;;;;;;;;;;;;;;5065356;28;1525;-73
2022/08/14 09:53:40;;;;;;;;;;;;;;;;;;5062166;28;2355;-74
2022/08/14 09:56:06;;;;;;;;;;;;;;;;;;5061857;28;2608;-73
2022/08/14 09:58:42;;;;;;;;;;;;;;;;;;5065021;28;2095;-73
2022/08/14 10:01:12;;;;;;;;;;;;;;;;;;5062673;28;1900;-72
2022/08/14 10:03:47;;;;;;;;;;;;;;;;;;5055817;28;3018;-71
2022/08/14 10:06:13;;;;;;;;;;;;;;;;;;5058871;28;2202;-71
2022/08/14 10:08:43;;;;;;;;;;;;;;;;;;5059803;28;2020;-71
2022/08/14 10:11:18;;;;;;;;;;;;;;;;;;5059357;28;2157;-71
2022/08/14 10:13:43;;;;;;;;;;;;;;;;;;5056043;28;2303;-71
2022/08/14 10:16:09;;;;;;;;;;;;;;;;;;5053351;28;2594;-71
2022/08/14 10:18:34;;;;;;;;;;;;;;;;;;5063278;28;2404;-71
2022/08/14 10:21:00;;;;;;;;;;;;;;;;;;5058350;28;1740;-72
2022/08/14 10:23:27;;;;;;;;;;;;;;;;;;5060386;28;2513;-73
2022/08/14 10:26:14;;;;;;;;;;;;;;;;;;5056844;28;1700;-73
2022/08/14 10:28:41;;;;;;;;;;;;;;;;;;5053513;28;1939;-71
2022/08/14 10:31:15;;;;;;;;;;;;;;;;;;5062106;28;2095;-79
2022/08/14 10:33:40;;;;;;;;;;;;;;;;;;5055033;28;2375;-73
2022/08/14 10:36:05;;;;;;;;;;;;;;;;;;5062271;28;1910;-72
2022/08/14 10:38:34;;;;;;;;;;;;;;;;;;5059132;28;2644;-72
2022/08/14 10:41:12;;;;;;;;;;;;;;;;;;5058017;28;1729;-80
2022/08/14 10:43:38;;;;;;;;;;;;;;;;;;5063984;28;2151;-71
2022/08/14 10:46:11;;;;;;;;;;;;;;;;;;5063251;28;1585;-70
2022/08/14 10:48:36;;;;;;;;;;;;;;;;;;5065107;28;2477;-72
2022/08/14 10:51:01;;;;;;;;;;;;;;;;;;5062661;28;2088;-72
2022/08/14 10:53:27;;;;;;;;;;;;;;;;;;5057086;28;2181;-73
2022/08/14 10:55:57;;;;;;;;;;;;;;;;;;5065534;28;1652;-72
2022/08/14 10:58:26;;;;;;;;;;;;;;;;;;5059528;28;2156;-72
2022/08/14 11:00:56;;;;;;;;;;;;;;;;;;5093515;28;1689;-72
2022/08/14 11:03:24;;;;;;;;;;;;;;;;;;5058608;28;2379;-72
2022/08/14 11:05:50;;;;;;;;;;;;;;;;;;5064625;28;2233;-72
2022/08/14 11:08:18;;;;;;;;;;;;;;;;;;5062458;28;2669;-71
2022/08/14 11:10:47;;;;;;;;;;;;;;;;;;5054570;28;2882;-72
2022/08/14 11:13:20;;;;;;;;;;;;;;;;;;5064860;28;2880;-72
2022/08/14 11:15:47;;;;;;;;;;;;;;;;;;5057751;28;1973;-72
2022/08/14 11:18:13;;;;;;;;;;;;;;;;;;5060174;28;2808;-72
2022/08/14 11:20:41;;;;;;;;;;;;;;;;;;5059917;28;2914;-72
2022/08/14 11:23:08;;;;;;;;;;;;;;;;;;5063412;28;2250;-72
2022/08/14 11:25:36;;;;;;;;;;;;;;;;;;5063275;28;2360;-72
2022/08/14 11:28:02;;;;;;;;;;;;;;;;;;5065297;28;2675;-72
2022/08/14 11:30:29;;;;;;;;;;;;;;;;;;5063183;28;2451;-72
2022/08/14 11:32:55;;;;;;;;;;;;;;;;;;5063666;28;2787;-71
2022/08/14 11:35:21;;;;;;;;;;;;;;;;;;5052734;28;1878;-72
2022/08/14 11:38:13;;;;;;;;;;;;;;;;;;5059039;28;2198;-72
2022/08/14 11:40:38;;;;;;;;;;;;;;;;;;5052290;28;2690;-71
2022/08/14 11:43:04;;;;;;;;;;;;;;;;;;5056971;28;2569;-72
2022/08/14 11:45:33;;;;;;;;;;;;;;;;;;5054468;28;2362;-72
2022/08/14 11:47:59;;;;;;;;;;;;;;;;;;5061479;28;2833;-72
2022/08/14 11:50:27;;;;;;;;;;;;;;;;;;5052721;28;2307;-72
2022/08/14 11:52:52;;;;;;;;;;;;;;;;;;5060261;28;2114;-72
2022/08/14 11:55:17;;;;;;;;;;;;;;;;;;5055248;28;2875;-72
2022/08/14 11:57:43;;;;;;;;;;;;;;;;;;5061262;28;2043;-72
2022/08/14 12:00:11;;;;;;;;;;;;;;;;;;5054230;28;2854;-72
2022/08/14 12:02:36;;;;;;;;;;;;;;;;;;5057137;28;2110;-72
2022/08/14 12:05:02;;;;;;;;;;;;;;;;;;5062428;28;2708;-72
2022/08/14 12:07:27;;;;;;;;;;;;;;;;;;5057890;28;1823;-72
2022/08/14 12:09:54;;;;;;;;;;;;;;;;;;5064966;28;2759;-72
2022/08/14 12:12:23;;;;;;;;;;;;;;;;;;5058656;28;2102;-72
2022/08/14 12:14:51;;;;;;;;;;;;;;;;;;5066122;28;2894;-72
2022/08/14 12:17:16;;;;;;;;;;;;;;;;;;5060910;28;2942;-72
2022/08/14 12:19:45;;;;;;;;;;;;;;;;;;5058880;28;2639;-72
2022/08/14 12:22:10;;;;;;;;;;;;;;;;;;5061813;28;2847;-72
2022/08/14 12:24:35;;;;;;;;;;;;;;;;;;5067730;28;2580;-72
2022/08/14 12:27:01;;;;;;;;;;;;;;;;;;5066603;28;1855;-72
2022/08/14 12:29:26;;;;;;;;;;;;;;;;;;5066237;28;2573;-72
2022/08/14 12:31:59;;;;;;;;;;;;;;;;;;5066767;28;1576;-72
2022/08/14 12:34:29;;;;;;;;;;;;;;;;;;5063724;28;2373;-72
2022/08/14 12:37:04;;;;;;;;;;;;;;;;;;5060836;28;1873;-73
2022/08/14 12:39:30;;;;;;;;;;;;;;;;;;5062410;28;2395;-73
2022/08/14 12:42:05;;;;;;;;;;;;;;;;;;5058933;28;1976;-73
2022/08/14 12:44:31;;;;;;;;;;;;;;;;;;5057654;28;2317;-72
2022/08/14 12:47:12;;;;;;;;;;;;;;;;;;5057106;28;2107;-73
2022/08/14 12:49:46;;;;;;;;;;;;;;;;;;5070477;28;2734;-73
2022/08/14 12:52:12;;;;;;;;;;;;;;;;;;5066937;28;1763;-73
2022/08/14 12:54:38;;;;;;;;;;;;;;;;;;5064330;28;2906;-73
2022/08/14 12:57:08;;;;;;;;;;;;;;;;;;5060216;28;1916;-73
2022/08/14 12:59:34;;;;;;;;;;;;;;;;;;5067016;28;2607;-73
2022/08/14 13:02:00;;;;;;;;;;;;;;;;;;5061670;28;1965;-73
2022/08/14 13:04:28;;;;;;;;;;;;;;;;;;5065887;28;2806;-73
2022/08/14 13:06:53;;;;;;;;;;;;;;;;;;5095975;28;1563;-73
2022/08/14 13:09:19;;;;;;;;;;;;;;;;;;5062675;28;2221;-73
2022/08/14 13:11:45;;;;;;;;;;;;;;;;;;5064374;28;1728;-73
2022/08/14 13:14:14;;;;;;;;;;;;;;;;;;5067775;28;2858;-73
2022/08/14 13:16:41;;;;;;;;;;;;;;;;;;5064345;28;1561;-73
2022/08/14 13:19:09;;;;;;;;;;;;;;;;;;5067505;28;2791;-73
2022/08/14 13:21:35;;;;;;;;;;;;;;;;;;5063794;28;1900;-73
2022/08/14 13:24:01;;;;;;;;;;;;;;;;;;5063556;28;2261;-73
2022/08/14 13:26:27;;;;;;;;;;;;;;;;;;5057368;28;1883;-73
2022/08/14 13:28:52;;;;;;;;;;;;;;;;;;5091952;27;2016;-73
2022/08/14 13:31:21;;;;;;;;;;;;;;;;;;5058940;28;2189;-73
2022/08/14 13:33:46;;;;;;;;;;;;;;;;;;5063925;28;2637;-73
2022/08/14 13:36:12;;;;;;;;;;;;;;;;;;5054472;28;2847;-73
2022/08/14 13:38:41;;;;;;;;;;;;;;;;;;5058873;28;2007;-72
2022/08/14 13:41:07;;;;;;;;;;;;;;;;;;5060332;28;3037;-73
2022/08/14 13:43:34;;;;;;;;;;;;;;;;;;5065650;28;2664;-73
2022/08/14 13:46:00;;;;;;;;;;;;;;;;;;5063144;28;2014;-73
2022/08/14 13:48:25;;;;;;;;;;;;;;;;;;5065512;28;1879;-73
2022/08/14 13:50:54;;;;;;;;;;;;;;;;;;5058038;28;2526;-74
2022/08/14 13:53:21;;;;;;;;;;;;;;;;;;5064354;28;2502;-73
2022/08/14 13:55:46;;;;;;;;;;;;;;;;;;5072054;28;2333;-72
2022/08/14 13:58:13;;;;;;;;;;;;;;;;;;5072080;28;2886;-72
2022/08/14 14:00:39;;;;;;;;;;;;;;;;;;5066963;28;3066;-73
2022/08/14 14:03:05;;;;;;;;;;;;;;;;;;5069220;28;2812;-71
2022/08/14 14:05:35;;;;;;;;;;;;;;;;;;5061258;28;2264;-71
2022/08/14 14:08:01;;;;;;;;;;;;;;;;;;5075291;28;2835;-72
2022/08/14 14:10:26;;;;;;;;;;;;;;;;;;5069008;28;2726;-72
2022/08/14 14:12:51;;;;;;;;;;;;;;;;;;5075476;28;2665;-72
2022/08/14 14:15:18;;;;;;;;;;;;;;;;;;5074048;28;2843;-71
2022/08/14 14:17:46;;;;;;;;;;;;;;;;;;5071833;28;1999;-71
2022/08/14 14:20:13;;;;;;;;;;;;;;;;;;5072988;28;3022;-72
2022/08/14 14:22:40;;;;;;;;;;;;;;;;;;5073187;28;2725;-73
2022/08/14 14:25:05;;;;;;;;;;;;;;;;;;5055201;28;2214;-74
2022/08/14 14:27:32;;;;;;;;;;;;;;;;;;5058144;28;2525;-74
2022/08/14 14:29:58;;;;;;;;;;;;;;;;;;5054607;28;2787;-74
2022/08/14 14:32:26;;;;;;;;;;;;;;;;;;5042905;28;1901;-74
2022/08/14 14:34:52;;;;;;;;;;;;;;;;;;5050736;28;2968;-73
2022/08/14 14:37:17;;;;;;;;;;;;;;;;;;5040499;28;2159;-74
2022/08/14 14:39:45;;;;;;;;;;;;;;;;;;5035850;28;2545;-74
2022/08/14 14:42:12;;;;;;;;;;;;;;;;;;5047112;28;2207;-74
2022/08/14 14:44:41;;;;;;;;;;;;;;;;;;5045388;28;2850;-73
2022/08/14 14:47:06;;;;;;;;;;;;;;;;;;5037628;28;2126;-74
2022/08/14 14:49:32;;;;;;;;;;;;;;;;;;5040823;28;2454;-74
2022/08/14 14:51:57;;;;;;;;;;;;;;;;;;5043598;28;1999;-74
2022/08/14 14:54:22;;;;;;;;;;;;;;;;;;5060739;28;2027;-74
2022/08/14 14:56:47;;;;;;;;;;;;;;;;;;5055124;28;2026;-74
2022/08/14 14:59:14;;;;;;;;;;;;;;;;;;5068536;28;1961;-74
2022/08/14 15:01:42;;;;;;;;;;;;;;;;;;5068446;28;2386;-73
2022/08/14 15:04:08;;;;;;;;;;;;;;;;;;5070230;28;2909;-73
2022/08/14 15:06:34;;;;;;;;;;;;;;;;;;5068749;28;2013;-73
2022/08/14 15:09:00;;;;;;;;;;;;;;;;;;5066691;28;2764;-73
2022/08/14 15:11:26;;;;;;;;;;;;;;;;;;5065554;28;2868;-73
2022/08/14 15:13:51;;;;;;;;;;;;;;;;;;5068849;28;2921;-73
2022/08/14 15:16:17;;;;;;;;;;;;;;;;;;5057709;28;1984;-73
2022/08/14 15:18:44;;;;;;;;;;;;;;;;;;5065129;28;2913;-73
2022/08/14 15:21:09;;;;;;;;;;;;;;;;;;5055862;28;3046;-73
2022/08/14 15:23:35;;;;;;;;;;;;;;;;;;5075392;28;2768;-73
2022/08/14 15:26:00;;;;;;;;;;;;;;;;;;5071840;28;1956;-73
2022/08/14 15:28:25;;;;;;;;;;;;;;;;;;5068258;28;1875;-74
2022/08/14 15:30:51;;;;;;;;;;;;;;;;;;5059830;28;2752;-73
2022/08/14 15:34:09;;;;;;;;;;;;;;;;;;5076208;28;2735;-73
2022/08/14 15:36:02;;;;;;;;;;;;;;;;;;5067042;28;2261;-73
2022/08/14 15:38:29;;;;;;;;;;;;;;;;;;5070933;28;2026;-74
2022/08/14 15:40:55;;;;;;;;;;;;;;;;;;5055821;28;2709;-73
2022/08/14 15:43:20;;;;;;;;;;;;;;;;;;5070084;28;2154;-74
2022/08/14 15:45:45;;;;;;;;;;;;;;;;;;5056902;28;2506;-75
2022/08/14 15:48:12;;;;;;;;;;;;;;;;;;5068441;28;2601;-73
2022/08/14 15:50:43;;;;;;;;;;;;;;;;;;5057838;28;2668;-85
2022/08/14 15:53:09;;;;;;;;;;;;;;;;;;5091071;28;1718;-79
2022/08/14 15:55:36;;;;;;;;;;;;;;;;;;5059384;28;2805;-74
2022/08/14 15:58:01;;;;;;;;;;;;;;;;;;5065126;28;1987;-84
2022/08/14 16:03:12;;;;;;;;;;;;;;;;;;5070104;28;728;-73
2022/08/14 16:05:38;;;;;;;;;;;;;;;;;;5071506;28;2807;-73
2022/08/14 16:08:07;;;;;;;;;;;;;;;;;;5069556;28;2723;-73
2022/08/14 16:10:32;;;;;;;;;;;;;;;;;;5072095;28;2859;-72
2022/08/14 16:12:57;;;;;;;;;;;;;;;;;;5073396;28;2779;-72
2022/08/14 16:15:23;;;;;;;;;;;;;;;;;;5072563;28;2893;-73
2022/08/14 16:17:49;;;;;;;;;;;;;;;;;;5069650;28;1898;-73
2022/08/14 16:20:14;;;;;;;;;;;;;;;;;;5065108;28;2635;-73
2022/08/14 16:22:40;;;;;;;;;;;;;;;;;;5066790;28;1911;-73
2022/08/14 16:25:08;;;;;;;;;;;;;;;;;;5061412;28;2681;-73
2022/08/14 16:27:37;;;;;;;;;;;;;;;;;;5068975;28;1545;-72
2022/08/14 16:30:03;;;;;;;;;;;;;;;;;;5058310;28;2799;-73
2022/08/14 16:32:28;;;;;;;;;;;;;;;;;;5056956;28;1797;-72
2022/08/14 16:34:53;;;;;;;;;;;;;;;;;;5056959;28;2313;-72
2022/08/14 16:37:19;;;;;;;;;;;;;;;;;;5055693;28;1981;-72
2022/08/14 16:39:46;;;;;;;;;;;;;;;;;;5064509;28;2350;-72
2022/08/14 16:42:12;;;;;;;;;;;;;;;;;;5057455;28;1808;-71
2022/08/14 16:44:38;;;;;;;;;;;;;;;;;;5064157;28;2098;-72
2022/08/14 16:47:04;;;;;;;;;;;;;;;;;;5062166;28;1673;-72
2022/08/14 16:49:30;;;;;;;;;;;;;;;;;;5058772;28;2321;-72
2022/08/14 16:51:55;;;;;;;;;;;;;;;;;;5060111;28;2892;-71
2022/08/14 16:54:20;;;;;;;;;;;;;;;;;;5061031;28;2778;-72
2022/08/14 16:56:45;;;;;;;;;;;;;;;;;;5060567;28;2643;-73
2022/08/14 16:59:11;;;;;;;;;;;;;;;;;;5058087;28;1902;-73
2022/08/14 17:01:37;;;;;;;;;;;;;;;;;;5059822;28;2655;-74
2022/08/14 17:04:05;;;;;;;;;;;;;;;;;;5061536;28;2539;-73
2022/08/14 17:06:35;;;;;;;;;;;;;;;;;;5056846;28;2746;-71
2022/08/14 17:09:00;;;;;;;;;;;;;;;;;;5062665;28;1673;-71
2022/08/14 17:11:25;;;;;;;;;;;;;;;;;;5054674;28;2444;-72
2022/08/14 17:13:51;;;;;;;;;;;;;;;;;;5094659;27;2120;-74
2022/08/14 17:16:17;;;;;;;;;;;;;;;;;;5062154;28;2913;-74